CBN2 weather

Bonnyville Health Care Centre Helipad
Bonnyville, Alberta, Canada

Public forecast

Using degrees Celsius for public forecast. Weather courtesy of forecast.io.

METAR (pilot weather report)

Closest report is CFB Cold Lake, 18.2 nm (33.8 km) ENE. Retrieved 2019/04/23 17:00 UTC (55 minutes ago):

CYOD 231700Z 30017G22KT 15SM SCT250 13/M01 A2970 RMK CI3 SLP067

TAF (pilot weather forecast)

Closest forecast is CFB Cold Lake, 18.2 nm (33.8 km) ENE. Retrieved 2019/04/23 15:35 UTC (2 hours ago):

TAF CYOD 231430Z 2315/2412 28015G25KT P6SM FEW050 FEW110 FEW250 BECMG 2404/2406 29012KT RMK NXT FCST BY 231800Z